Airfield :
LOGIN :

Register | Disclaimer

   EN    FR    IT 

 










Legend :    VFR   Marginal VFR   IFR   Intensive IFR   Very Intensive IFR
Visi :
Ceiling :
>= 8 km
>= 3000ft
5 to 8 km
1000 to 3000 ft
1500m to 5 km
500 to 1000 ft
800 to 1500m
200 to 500 ft
< 800m
< 200 ft
Symbols :   Thunderstorms  Fog  Heavy snow  Heavy precipitations  Wind > 20 kt
SIGMETs :     Misc.  Thunderstorms  Icing  Turbulence  Mountain Waves  Volcanic Ashes






- Airport Elevation : 935 ft


EBFS - Florennes

CURRENT METAR :
  • 192325Z AUTO 32011KT 9999 FEW060/// BKN095/// OVC110/// 03/01 Q1017 BLU

EXPIRED METARs :
  • 192255Z AUTO 31011KT 9999 FEW033/// SCT110/// BKN220/// 03/01 Q1017 BLU
  • 192225Z AUTO 31011KT 9999 FEW050/// SCT100/// BKN220/// 04/01 Q1017 BLU
  • 192155Z AUTO 31010KT 9999 FEW020/// SCT130/// BKN220/// 04/01 Q1016 BLU
  • 192133Z AUTO 31011KT 9999 SCT021/// BKN027/// 04/02 Q1016 WHT
  • 192103Z AUTO 32010KT 9999 FEW018/// SCT024/// BKN032/// 04/02 Q1016 WHT
  • 192025Z AUTO 32011KT 9999 FEW017/// SCT024/// BKN050/// 05/03 Q1016 WHT
  • 191955Z AUTO 32013KT 9999 FEW016/// SCT027/// BKN040/// 05/02 Q1016 BLU
  • 191925Z AUTO 33013KT 4900 FEW018/// SCT023/// BKN034/// 05/02 Q1015 GRN FCST CANCEL
  • 191922Z AUTO 32013KT 9999 FEW018/// SCT023/// BKN034/// 06/02 Q1015 WHT FCST CANCEL
  • 191855Z 32011KT 9999 SCT025 BKN060 06/02 Q1015 BLU BLU

TAF TAF EBFS
Valid from the 19 at 19:00 until the 20 at 07:00 UTC


191541Z 1919/2007 31010KT 9999 SCT018
TEMPO 1919/1922 31012G22KT
PROB30
TEMPO 2004/2007 31010G20KT 4000 -SHRA SCT008 SCT015TCU



MET'MAP, your aeronautical weather chart ! - Copyright ORBIFLY December 2007 - Disclaimer

ORBIFLY MET'MAP TEAM :

Programming & Development : Alexandra Zaïnal
Original concept : Baudouin d'Aumeries
Technical & hardware support : Manuel Goepfert
Assistance : Marc-Olivier Méhu




SOURCES & CREDITS :

   NOAA